sensor_id;sensor_type;location;lat;lon;timestamp;temperature;humidity
23251;DHT22;11794;49.730;10.088;2022-09-28T00:01:26;7.90;99.90
23251;DHT22;11794;49.730;10.088;2022-09-28T00:03:54;7.80;99.90
23251;DHT22;11794;49.730;10.088;2022-09-28T00:06:23;7.80;99.90
23251;DHT22;11794;49.730;10.088;2022-09-28T00:08:49;7.80;99.90
23251;DHT22;11794;49.730;10.088;2022-09-28T00:11:16;7.90;99.90
23251;DHT22;11794;49.730;10.088;2022-09-28T00:13:43;7.90;99.90
23251;DHT22;11794;49.730;10.088;2022-09-28T00:16:13;7.90;99.90
23251;DHT22;11794;49.730;10.088;2022-09-28T00:18:40;7.90;99.90
23251;DHT22;11794;49.730;10.088;2022-09-28T00:21:08;7.90;99.90
23251;DHT22;11794;49.730;10.088;2022-09-28T00:23:34;7.90;99.90
23251;DHT22;11794;49.730;10.088;2022-09-28T00:26:20;7.90;99.90
23251;DHT22;11794;49.730;10.088;2022-09-28T00:28:46;7.90;99.90
23251;DHT22;11794;49.730;10.088;2022-09-28T00:31:11;7.90;99.90
23251;DHT22;11794;49.730;10.088;2022-09-28T00:33:37;8.00;99.90
23251;DHT22;11794;49.730;10.088;2022-09-28T00:36:04;8.00;99.90
23251;DHT22;11794;49.730;10.088;2022-09-28T00:38:30;8.00;99.90
23251;DHT22;11794;49.730;10.088;2022-09-28T00:40:56;8.00;99.90
23251;DHT22;11794;49.730;10.088;2022-09-28T00:43:22;8.00;99.90
23251;DHT22;11794;49.730;10.088;2022-09-28T00:45:59;8.00;99.90
23251;DHT22;11794;49.730;10.088;2022-09-28T00:48:30;8.10;99.90
23251;DHT22;11794;49.730;10.088;2022-09-28T00:50:58;8.10;99.90
23251;DHT22;11794;49.730;10.088;2022-09-28T00:53:29;8.10;99.90
23251;DHT22;11794;49.730;10.088;2022-09-28T00:55:58;8.10;99.90
23251;DHT22;11794;49.730;10.088;2022-09-28T00:58:33;8.10;99.90
23251;DHT22;11794;49.730;10.088;2022-09-28T01:01:01;8.20;99.90
23251;DHT22;11794;49.730;10.088;2022-09-28T01:03:28;8.20;99.90
23251;DHT22;11794;49.730;10.088;2022-09-28T01:05:56;8.20;99.90
23251;DHT22;11794;49.730;10.088;2022-09-28T01:08:25;8.20;99.90
23251;DHT22;11794;49.730;10.088;2022-09-28T01:10:52;8.20;99.90
23251;DHT22;11794;49.730;10.088;2022-09-28T01:13:18;8.30;99.90
23251;DHT22;11794;49.730;10.088;2022-09-28T01:16:12;8.30;99.90
23251;DHT22;11794;49.730;10.088;2022-09-28T01:21:25;8.20;99.90
23251;DHT22;11794;49.730;10.088;2022-09-28T01:29:26;8.20;99.90
23251;DHT22;11794;49.730;10.088;2022-09-28T01:34:53;8.20;99.90
23251;DHT22;11794;49.730;10.088;2022-09-28T01:37:25;8.20;99.90
23251;DHT22;11794;49.730;10.088;2022-09-28T01:39:54;8.20;99.90
23251;DHT22;11794;49.730;10.088;2022-09-28T01:42:26;8.20;99.90
23251;DHT22;11794;49.730;10.088;2022-09-28T01:44:59;8.10;99.90
23251;DHT22;11794;49.730;10.088;2022-09-28T01:47:26;8.10;99.90
23251;DHT22;11794;49.730;10.088;2022-09-28T01:50:08;8.10;99.90
23251;DHT22;11794;49.730;10.088;2022-09-28T01:52:50;8.10;99.90
23251;DHT22;11794;49.730;10.088;2022-09-28T01:58:21;8.10;99.90
23251;DHT22;11794;49.730;10.088;2022-09-28T02:00:55;8.10;99.90
23251;DHT22;11794;49.730;10.088;2022-09-28T02:03:33;8.10;99.90
23251;DHT22;11794;49.730;10.088;2022-09-28T02:06:07;8.10;99.90
23251;DHT22;11794;49.730;10.088;2022-09-28T02:08:59;8.10;99.90
23251;DHT22;11794;49.730;10.088;2022-09-28T02:11:23;8.10;99.90
23251;DHT22;11794;49.730;10.088;2022-09-28T02:13:58;8.10;99.90
23251;DHT22;11794;49.730;10.088;2022-09-28T02:16:44;8.10;99.90
23251;DHT22;11794;49.730;10.088;2022-09-28T02:19:16;8.10;99.90
23251;DHT22;11794;49.730;10.088;2022-09-28T02:26:59;8.10;99.90
23251;DHT22;11794;49.730;10.088;2022-09-28T02:29:26;8.10;99.90
23251;DHT22;11794;49.730;10.088;2022-09-28T02:31:52;8.10;99.90
23251;DHT22;11794;49.730;10.088;2022-09-28T02:34:17;8.10;99.90
23251;DHT22;11794;49.730;10.088;2022-09-28T02:36:44;8.10;99.90
23251;DHT22;11794;49.730;10.088;2022-09-28T02:39:14;8.00;99.90
23251;DHT22;11794;49.730;10.088;2022-09-28T02:41:50;8.10;99.90
23251;DHT22;11794;49.730;10.088;2022-09-28T02:44:29;8.00;99.90
23251;DHT22;11794;49.730;10.088;2022-09-28T02:47:08;8.00;99.90
23251;DHT22;11794;49.730;10.088;2022-09-28T02:49:40;8.00;99.90
23251;DHT22;11794;49.730;10.088;2022-09-28T02:55:17;8.00;99.90
23251;DHT22;11794;49.730;10.088;2022-09-28T03:00:40;8.00;99.90
23251;DHT22;11794;49.730;10.088;2022-09-28T03:06:27;7.90;99.90
23251;DHT22;11794;49.730;10.088;2022-09-28T03:11:48;7.90;99.90
23251;DHT22;11794;49.730;10.088;2022-09-28T03:14:15;8.00;99.90
23251;DHT22;11794;49.730;10.088;2022-09-28T03:16:45;8.00;99.90
23251;DHT22;11794;49.730;10.088;2022-09-28T03:19:16;8.00;99.90
23251;DHT22;11794;49.730;10.088;2022-09-28T03:21:43;8.00;99.90
23251;DHT22;11794;49.730;10.088;2022-09-28T03:24:08;8.00;99.90
23251;DHT22;11794;49.730;10.088;2022-09-28T03:26:38;8.10;99.90
23251;DHT22;11794;49.730;10.088;2022-09-28T03:29:04;8.10;99.90
23251;DHT22;11794;49.730;10.088;2022-09-28T03:31:29;8.20;99.90
23251;DHT22;11794;49.730;10.088;2022-09-28T03:33:55;8.20;99.90
23251;DHT22;11794;49.730;10.088;2022-09-28T03:36:21;8.20;99.90
23251;DHT22;11794;49.730;10.088;2022-09-28T03:38:46;8.10;99.90
23251;DHT22;11794;49.730;10.088;2022-09-28T03:41:12;8.20;99.90
23251;DHT22;11794;49.730;10.088;2022-09-28T03:43:37;8.20;99.90
23251;DHT22;11794;49.730;10.088;2022-09-28T03:46:03;8.20;99.90
23251;DHT22;11794;49.730;10.088;2022-09-28T03:48:32;8.20;99.90
23251;DHT22;11794;49.730;10.088;2022-09-28T03:51:00;8.20;99.90
23251;DHT22;11794;49.730;10.088;2022-09-28T03:53:26;8.30;99.90
23251;DHT22;11794;49.730;10.088;2022-09-28T03:55:53;8.20;99.90
23251;DHT22;11794;49.730;10.088;2022-09-28T03:58:19;8.20;99.90
23251;DHT22;11794;49.730;10.088;2022-09-28T04:00:45;8.20;99.90
23251;DHT22;11794;49.730;10.088;2022-09-28T04:03:11;8.20;99.90
23251;DHT22;11794;49.730;10.088;2022-09-28T04:05:36;8.20;99.90
23251;DHT22;11794;49.730;10.088;2022-09-28T04:08:02;8.20;99.90
23251;DHT22;11794;49.730;10.088;2022-09-28T04:10:28;8.20;99.90
23251;DHT22;11794;49.730;10.088;2022-09-28T04:12:56;8.20;99.90
23251;DHT22;11794;49.730;10.088;2022-09-28T04:15:25;8.20;99.90
23251;DHT22;11794;49.730;10.088;2022-09-28T04:17:51;8.20;99.90
23251;DHT22;11794;49.730;10.088;2022-09-28T04:20:17;8.30;99.90
23251;DHT22;11794;49.730;10.088;2022-09-28T04:22:42;8.20;99.90
23251;DHT22;11794;49.730;10.088;2022-09-28T04:25:08;8.30;99.90
23251;DHT22;11794;49.730;10.088;2022-09-28T04:27:34;8.30;99.90
23251;DHT22;11794;49.730;10.088;2022-09-28T04:30:18;8.30;99.90
23251;DHT22;11794;49.730;10.088;2022-09-28T04:32:45;8.30;99.90
23251;DHT22;11794;49.730;10.088;2022-09-28T04:35:11;8.30;99.90
23251;DHT22;11794;49.730;10.088;2022-09-28T04:37:37;8.30;99.90
23251;DHT22;11794;49.730;10.088;2022-09-28T04:40:03;8.30;99.90
23251;DHT22;11794;49.730;10.088;2022-09-28T04:42:28;8.40;99.90
23251;DHT22;11794;49.730;10.088;2022-09-28T04:44:54;8.40;99.90
23251;DHT22;11794;49.730;10.088;2022-09-28T04:47:21;8.40;99.90
23251;DHT22;11794;49.730;10.088;2022-09-28T04:49:47;8.40;99.90
23251;DHT22;11794;49.730;10.088;2022-09-28T04:52:13;8.40;99.90
23251;DHT22;11794;49.730;10.088;2022-09-28T04:54:38;8.40;99.90
23251;DHT22;11794;49.730;10.088;2022-09-28T04:57:04;8.40;99.90
23251;DHT22;11794;49.730;10.088;2022-09-28T04:59:30;8.40;99.90
23251;DHT22;11794;49.730;10.088;2022-09-28T05:01:55;8.50;99.90
23251;DHT22;11794;49.730;10.088;2022-09-28T05:04:21;8.50;99.90
23251;DHT22;11794;49.730;10.088;2022-09-28T05:06:47;8.50;99.90
23251;DHT22;11794;49.730;10.088;2022-09-28T05:09:12;8.60;99.90
23251;DHT22;11794;49.730;10.088;2022-09-28T05:11:38;8.60;99.90
23251;DHT22;11794;49.730;10.088;2022-09-28T05:14:03;8.60;99.90
23251;DHT22;11794;49.730;10.088;2022-09-28T05:16:30;8.70;99.90
23251;DHT22;11794;49.730;10.088;2022-09-28T05:18:58;8.60;99.90
23251;DHT22;11794;49.730;10.088;2022-09-28T05:21:24;8.60;99.90
23251;DHT22;11794;49.730;10.088;2022-09-28T05:23:51;8.70;99.90
23251;DHT22;11794;49.730;10.088;2022-09-28T05:26:17;8.70;99.90
23251;DHT22;11794;49.730;10.088;2022-09-28T05:28:42;8.70;99.90
23251;DHT22;11794;49.730;10.088;2022-09-28T05:31:09;8.70;99.90
23251;DHT22;11794;49.730;10.088;2022-09-28T05:33:34;8.70;99.90
23251;DHT22;11794;49.730;10.088;2022-09-28T05:36:00;8.70;99.90
23251;DHT22;11794;49.730;10.088;2022-09-28T05:38:26;8.70;99.90
23251;DHT22;11794;49.730;10.088;2022-09-28T05:40:52;8.70;99.90
23251;DHT22;11794;49.730;10.088;2022-09-28T05:43:17;8.70;99.90
23251;DHT22;11794;49.730;10.088;2022-09-28T05:45:43;8.70;99.90
23251;DHT22;11794;49.730;10.088;2022-09-28T05:48:08;8.80;99.90
23251;DHT22;11794;49.730;10.088;2022-09-28T05:50:34;8.80;99.90
23251;DHT22;11794;49.730;10.088;2022-09-28T05:53:02;8.80;99.90
23251;DHT22;11794;49.730;10.088;2022-09-28T05:55:28;8.80;99.90
23251;DHT22;11794;49.730;10.088;2022-09-28T05:58:00;8.80;99.90
23251;DHT22;11794;49.730;10.088;2022-09-28T06:00:27;8.90;99.90
23251;DHT22;11794;49.730;10.088;2022-09-28T06:05:22;9.00;99.90
23251;DHT22;11794;49.730;10.088;2022-09-28T06:07:48;9.00;99.90
23251;DHT22;11794;49.730;10.088;2022-09-28T06:10:13;9.00;99.90
23251;DHT22;11794;49.730;10.088;2022-09-28T06:12:39;9.00;99.90
23251;DHT22;11794;49.730;10.088;2022-09-28T06:15:05;9.00;99.90
23251;DHT22;11794;49.730;10.088;2022-09-28T06:17:31;9.00;99.90
23251;DHT22;11794;49.730;10.088;2022-09-28T06:19:57;9.00;99.90
23251;DHT22;11794;49.730;10.088;2022-09-28T06:22:23;9.00;99.90
23251;DHT22;11794;49.730;10.088;2022-09-28T06:24:48;9.00;99.90
23251;DHT22;11794;49.730;10.088;2022-09-28T06:27:14;9.00;99.90
23251;DHT22;11794;49.730;10.088;2022-09-28T06:29:39;8.90;99.90
23251;DHT22;11794;49.730;10.088;2022-09-28T06:32:05;8.90;99.90
23251;DHT22;11794;49.730;10.088;2022-09-28T06:34:32;9.00;99.90
23251;DHT22;11794;49.730;10.088;2022-09-28T06:36:59;9.00;99.90
23251;DHT22;11794;49.730;10.088;2022-09-28T06:39:25;9.10;99.90
23251;DHT22;11794;49.730;10.088;2022-09-28T06:41:50;9.00;99.90
23251;DHT22;11794;49.730;10.088;2022-09-28T06:44:16;9.00;99.90
23251;DHT22;11794;49.730;10.088;2022-09-28T06:46:42;9.00;99.90
23251;DHT22;11794;49.730;10.088;2022-09-28T06:49:07;9.00;99.90
23251;DHT22;11794;49.730;10.088;2022-09-28T06:51:34;8.90;99.90
23251;DHT22;11794;49.730;10.088;2022-09-28T06:54:01;8.80;99.90
23251;DHT22;11794;49.730;10.088;2022-09-28T06:56:26;8.70;99.90
23251;DHT22;11794;49.730;10.088;2022-09-28T06:58:52;8.90;99.90
23251;DHT22;11794;49.730;10.088;2022-09-28T07:01:18;9.20;99.90
23251;DHT22;11794;49.730;10.088;2022-09-28T07:03:43;9.30;99.90
23251;DHT22;11794;49.730;10.088;2022-09-28T07:06:10;9.50;99.90
23251;DHT22;11794;49.730;10.088;2022-09-28T07:08:36;9.60;99.90
23251;DHT22;11794;49.730;10.088;2022-09-28T07:11:05;9.70;99.90
23251;DHT22;11794;49.730;10.088;2022-09-28T07:13:30;9.70;99.90
23251;DHT22;11794;49.730;10.088;2022-09-28T07:15:57;9.80;99.90
23251;DHT22;11794;49.730;10.088;2022-09-28T07:18:24;9.90;99.90
23251;DHT22;11794;49.730;10.088;2022-09-28T07:20:52;10.00;99.90
23251;DHT22;11794;49.730;10.088;2022-09-28T07:23:19;10.00;99.90
23251;DHT22;11794;49.730;10.088;2022-09-28T07:25:45;10.10;99.90
23251;DHT22;11794;49.730;10.088;2022-09-28T07:28:13;10.10;99.90
23251;DHT22;11794;49.730;10.088;2022-09-28T07:30:39;10.30;99.90
23251;DHT22;11794;49.730;10.088;2022-09-28T07:33:06;10.50;99.90
23251;DHT22;11794;49.730;10.088;2022-09-28T07:35:32;10.60;99.90
23251;DHT22;11794;49.730;10.088;2022-09-28T07:38:04;10.90;99.90
23251;DHT22;11794;49.730;10.088;2022-09-28T07:40:31;11.00;99.90
23251;DHT22;11794;49.730;10.088;2022-09-28T07:43:16;10.90;99.90
23251;DHT22;11794;49.730;10.088;2022-09-28T07:45:49;10.80;99.90
23251;DHT22;11794;49.730;10.088;2022-09-28T07:48:16;10.70;99.90
23251;DHT22;11794;49.730;10.088;2022-09-28T07:51:01;10.60;99.90
23251;DHT22;11794;49.730;10.088;2022-09-28T07:53:26;10.40;99.90
23251;DHT22;11794;49.730;10.088;2022-09-28T07:55:54;10.30;99.90
23251;DHT22;11794;49.730;10.088;2022-09-28T07:58:21;10.60;99.90
23251;DHT22;11794;49.730;10.088;2022-09-28T08:00:49;10.70;99.90
23251;DHT22;11794;49.730;10.088;2022-09-28T08:03:16;11.10;99.90
23251;DHT22;11794;49.730;10.088;2022-09-28T08:05:42;11.20;99.90
23251;DHT22;11794;49.730;10.088;2022-09-28T08:08:09;11.60;99.90
23251;DHT22;11794;49.730;10.088;2022-09-28T08:10:35;12.10;99.90
23251;DHT22;11794;49.730;10.088;2022-09-28T08:13:02;12.70;99.90
23251;DHT22;11794;49.730;10.088;2022-09-28T08:15:31;12.90;99.90
23251;DHT22;11794;49.730;10.088;2022-09-28T08:18:04;12.80;99.90
23251;DHT22;11794;49.730;10.088;2022-09-28T08:20:31;13.10;99.90
23251;DHT22;11794;49.730;10.088;2022-09-28T08:23:15;13.10;99.90
23251;DHT22;11794;49.730;10.088;2022-09-28T08:25:45;12.90;99.90
23251;DHT22;11794;49.730;10.088;2022-09-28T08:28:13;12.40;99.90
23251;DHT22;11794;49.730;10.088;2022-09-28T08:30:40;11.90;99.90
23251;DHT22;11794;49.730;10.088;2022-09-28T08:33:05;12.30;99.90
23251;DHT22;11794;49.730;10.088;2022-09-28T08:35:32;13.60;99.90
23251;DHT22;11794;49.730;10.088;2022-09-28T08:37:57;14.00;99.90
23251;DHT22;11794;49.730;10.088;2022-09-28T08:40:24;13.80;99.90
23251;DHT22;11794;49.730;10.088;2022-09-28T08:42:55;13.80;99.90
23251;DHT22;11794;49.730;10.088;2022-09-28T08:45:27;14.80;99.90
23251;DHT22;11794;49.730;10.088;2022-09-28T08:48:10;15.60;99.90
23251;DHT22;11794;49.730;10.088;2022-09-28T08:51:01;15.20;99.90
23251;DHT22;11794;49.730;10.088;2022-09-28T08:56:03;14.10;99.90
23251;DHT22;11794;49.730;10.088;2022-09-28T08:58:34;14.60;99.90
23251;DHT22;11794;49.730;10.088;2022-09-28T09:01:02;15.20;99.90
23251;DHT22;11794;49.730;10.088;2022-09-28T09:03:35;15.70;99.90
23251;DHT22;11794;49.730;10.088;2022-09-28T09:09:04;14.70;99.90
23251;DHT22;11794;49.730;10.088;2022-09-28T09:14:42;13.90;99.90
23251;DHT22;11794;49.730;10.088;2022-09-28T09:17:46;15.00;99.90
23251;DHT22;11794;49.730;10.088;2022-09-28T09:23:18;14.70;99.90
23251;DHT22;11794;49.730;10.088;2022-09-28T09:25:50;13.70;99.90
23251;DHT22;11794;49.730;10.088;2022-09-28T09:28:49;12.80;99.90
23251;DHT22;11794;49.730;10.088;2022-09-28T09:43:03;13.30;99.90
23251;DHT22;11794;49.730;10.088;2022-09-28T09:45:52;15.50;99.90
23251;DHT22;11794;49.730;10.088;2022-09-28T09:48:25;17.60;99.90
23251;DHT22;11794;49.730;10.088;2022-09-28T09:50:59;18.10;99.90
23251;DHT22;11794;49.730;10.088;2022-09-28T09:53:36;17.20;99.90
23251;DHT22;11794;49.730;10.088;2022-09-28T09:56:19;15.90;99.90
23251;DHT22;11794;49.730;10.088;2022-09-28T09:58:53;14.70;99.90
23251;DHT22;11794;49.730;10.088;2022-09-28T10:01:32;14.10;99.90
23251;DHT22;11794;49.730;10.088;2022-09-28T10:03:59;13.70;99.90
23251;DHT22;11794;49.730;10.088;2022-09-28T10:06:30;13.40;99.90
23251;DHT22;11794;49.730;10.088;2022-09-28T10:09:02;13.30;99.90
23251;DHT22;11794;49.730;10.088;2022-09-28T10:11:35;13.30;99.90
23251;DHT22;11794;49.730;10.088;2022-09-28T10:14:02;13.20;99.90
23251;DHT22;11794;49.730;10.088;2022-09-28T10:16:29;13.10;99.90
23251;DHT22;11794;49.730;10.088;2022-09-28T10:18:55;12.90;99.90
23251;DHT22;11794;49.730;10.088;2022-09-28T10:21:21;12.90;99.90
23251;DHT22;11794;49.730;10.088;2022-09-28T10:23:59;13.10;99.90
23251;DHT22;11794;49.730;10.088;2022-09-28T10:26:47;13.50;99.90
23251;DHT22;11794;49.730;10.088;2022-09-28T10:29:18;13.90;99.90
23251;DHT22;11794;49.730;10.088;2022-09-28T10:31:46;14.00;99.90
23251;DHT22;11794;49.730;10.088;2022-09-28T10:34:14;14.10;99.90
23251;DHT22;11794;49.730;10.088;2022-09-28T10:37:13;14.00;99.90
23251;DHT22;11794;49.730;10.088;2022-09-28T10:42:11;13.60;99.90
23251;DHT22;11794;49.730;10.088;2022-09-28T10:44:58;13.50;99.90
23251;DHT22;11794;49.730;10.088;2022-09-28T10:47:27;13.50;99.90
23251;DHT22;11794;49.730;10.088;2022-09-28T10:49:53;13.60;99.90
23251;DHT22;11794;49.730;10.088;2022-09-28T10:52:40;14.10;99.90
23251;DHT22;11794;49.730;10.088;2022-09-28T10:55:26;15.10;99.90
23251;DHT22;11794;49.730;10.088;2022-09-28T10:57:52;16.70;99.90
23251;DHT22;11794;49.730;10.088;2022-09-28T11:00:39;17.40;99.90
23251;DHT22;11794;49.730;10.088;2022-09-28T11:03:21;17.10;99.90
23251;DHT22;11794;49.730;10.088;2022-09-28T11:06:06;16.90;99.90
23251;DHT22;11794;49.730;10.088;2022-09-28T11:08:39;16.40;99.90
23251;DHT22;11794;49.730;10.088;2022-09-28T11:11:09;15.90;99.90
23251;DHT22;11794;49.730;10.088;2022-09-28T11:13:50;15.60;99.90
23251;DHT22;11794;49.730;10.088;2022-09-28T11:16:30;15.40;99.90
23251;DHT22;11794;49.730;10.088;2022-09-28T11:19:02;15.40;99.90
23251;DHT22;11794;49.730;10.088;2022-09-28T11:21:30;15.40;99.90
23251;DHT22;11794;49.730;10.088;2022-09-28T11:26:43;14.80;99.90
23251;DHT22;11794;49.730;10.088;2022-09-28T11:29:41;15.00;99.90
23251;DHT22;11794;49.730;10.088;2022-09-28T11:32:10;15.10;99.90
23251;DHT22;11794;49.730;10.088;2022-09-28T11:34:42;15.20;99.90
23251;DHT22;11794;49.730;10.088;2022-09-28T11:46:03;14.80;99.90
23251;DHT22;11794;49.730;10.088;2022-09-28T11:48:41;14.80;99.90
23251;DHT22;11794;49.730;10.088;2022-09-28T11:51:16;14.80;99.90
23251;DHT22;11794;49.730;10.088;2022-09-28T11:53:50;14.80;99.90
23251;DHT22;11794;49.730;10.088;2022-09-28T11:56:33;15.10;99.90
23251;DHT22;11794;49.730;10.088;2022-09-28T12:01:39;16.40;99.90
23251;DHT22;11794;49.730;10.088;2022-09-28T12:04:36;17.10;99.90
23251;DHT22;11794;49.730;10.088;2022-09-28T12:07:10;17.70;99.90
23251;DHT22;11794;49.730;10.088;2022-09-28T12:09:54;17.30;99.90
23251;DHT22;11794;49.730;10.088;2022-09-28T12:12:36;16.90;99.90
23251;DHT22;11794;49.730;10.088;2022-09-28T12:15:15;16.70;99.90
23251;DHT22;11794;49.730;10.088;2022-09-28T12:17:47;16.50;99.90
23251;DHT22;11794;49.730;10.088;2022-09-28T12:20:18;16.00;99.90
23251;DHT22;11794;49.730;10.088;2022-09-28T12:23:33;15.50;99.90
23251;DHT22;11794;49.730;10.088;2022-09-28T12:25:58;15.30;99.90
23251;DHT22;11794;49.730;10.088;2022-09-28T12:28:44;15.00;99.90
23251;DHT22;11794;49.730;10.088;2022-09-28T12:31:20;15.30;99.90
23251;DHT22;11794;49.730;10.088;2022-09-28T12:33:50;15.40;99.90
23251;DHT22;11794;49.730;10.088;2022-09-28T12:44:45;15.30;99.90
23251;DHT22;11794;49.730;10.088;2022-09-28T12:54:51;14.80;99.90
23251;DHT22;11794;49.730;10.088;2022-09-28T13:00:12;14.50;99.90
23251;DHT22;11794;49.730;10.088;2022-09-28T13:08:31;14.30;99.90
23251;DHT22;11794;49.730;10.088;2022-09-28T13:16:56;18.40;99.90
23251;DHT22;11794;49.730;10.088;2022-09-28T13:24:46;23.70;98.80
23251;DHT22;11794;49.730;10.088;2022-09-28T13:27:16;24.40;96.40
23251;DHT22;11794;49.730;10.088;2022-09-28T13:29:44;23.80;95.60
23251;DHT22;11794;49.730;10.088;2022-09-28T13:32:10;23.80;94.90
23251;DHT22;11794;49.730;10.088;2022-09-28T13:34:37;24.60;95.80
23251;DHT22;11794;49.730;10.088;2022-09-28T13:42:08;25.10;93.00
23251;DHT22;11794;49.730;10.088;2022-09-28T13:45:32;23.70;93.80
23251;DHT22;11794;49.730;10.088;2022-09-28T13:50:53;20.90;96.70
23251;DHT22;11794;49.730;10.088;2022-09-28T13:56:42;17.90;99.90
23251;DHT22;11794;49.730;10.088;2022-09-28T13:59:22;17.90;99.90
23251;DHT22;11794;49.730;10.088;2022-09-28T14:07:24;22.10;96.30
23251;DHT22;11794;49.730;10.088;2022-09-28T14:12:52;23.40;93.80
23251;DHT22;11794;49.730;10.088;2022-09-28T14:18:11;24.30;91.40
23251;DHT22;11794;49.730;10.088;2022-09-28T14:26:42;21.10;94.50
23251;DHT22;11794;49.730;10.088;2022-09-28T14:29:22;19.00;96.20
23251;DHT22;11794;49.730;10.088;2022-09-28T14:31:57;18.00;99.10
23251;DHT22;11794;49.730;10.088;2022-09-28T14:34:37;18.00;99.70
23251;DHT22;11794;49.730;10.088;2022-09-28T14:37:15;17.60;99.90
23251;DHT22;11794;49.730;10.088;2022-09-28T14:40:15;17.00;99.90
23251;DHT22;11794;49.730;10.088;2022-09-28T14:43:20;16.50;99.90
23251;DHT22;11794;49.730;10.088;2022-09-28T14:45:50;16.40;99.90
23251;DHT22;11794;49.730;10.088;2022-09-28T14:48:21;16.50;99.90
23251;DHT22;11794;49.730;10.088;2022-09-28T14:54:39;16.00;99.90
23251;DHT22;11794;49.730;10.088;2022-09-28T14:59:19;15.10;99.90
23251;DHT22;11794;49.730;10.088;2022-09-28T15:01:59;14.90;99.90
23251;DHT22;11794;49.730;10.088;2022-09-28T15:04:29;14.80;99.90
23251;DHT22;11794;49.730;10.088;2022-09-28T15:06:55;14.60;99.90
23251;DHT22;11794;49.730;10.088;2022-09-28T15:09:35;14.70;99.90
23251;DHT22;11794;49.730;10.088;2022-09-28T15:14:34;15.10;99.90
23251;DHT22;11794;49.730;10.088;2022-09-28T15:17:08;14.90;99.90
23251;DHT22;11794;49.730;10.088;2022-09-28T15:22:25;14.20;99.90
23251;DHT22;11794;49.730;10.088;2022-09-28T15:24:57;14.00;99.90
23251;DHT22;11794;49.730;10.088;2022-09-28T15:27:24;13.90;99.90
23251;DHT22;11794;49.730;10.088;2022-09-28T15:30:24;14.30;99.90
23251;DHT22;11794;49.730;10.088;2022-09-28T15:32:54;14.70;99.90
23251;DHT22;11794;49.730;10.088;2022-09-28T15:37:48;14.50;99.90
23251;DHT22;11794;49.730;10.088;2022-09-28T15:40:30;14.20;99.90
23251;DHT22;11794;49.730;10.088;2022-09-28T15:42:57;14.00;99.90
23251;DHT22;11794;49.730;10.088;2022-09-28T15:45:35;13.90;99.90
23251;DHT22;11794;49.730;10.088;2022-09-28T15:48:18;13.90;99.90
23251;DHT22;11794;49.730;10.088;2022-09-28T15:50:56;13.90;99.90
23251;DHT22;11794;49.730;10.088;2022-09-28T15:53:22;13.80;99.90
23251;DHT22;11794;49.730;10.088;2022-09-28T15:55:49;13.70;99.90
23251;DHT22;11794;49.730;10.088;2022-09-28T15:58:19;13.60;99.90
23251;DHT22;11794;49.730;10.088;2022-09-28T16:00:47;13.60;99.90
23251;DHT22;11794;49.730;10.088;2022-09-28T16:11:18;13.10;99.90
23251;DHT22;11794;49.730;10.088;2022-09-28T16:13:53;13.00;99.90
23251;DHT22;11794;49.730;10.088;2022-09-28T16:16:24;13.00;99.90
23251;DHT22;11794;49.730;10.088;2022-09-28T16:18:50;12.80;99.90
23251;DHT22;11794;49.730;10.088;2022-09-28T16:21:43;12.70;99.90
23251;DHT22;11794;49.730;10.088;2022-09-28T16:24:38;12.60;99.90
23251;DHT22;11794;49.730;10.088;2022-09-28T16:27:24;12.50;99.90
23251;DHT22;11794;49.730;10.088;2022-09-28T16:32:36;12.40;99.90
23251;DHT22;11794;49.730;10.088;2022-09-28T16:37:37;12.40;99.90
23251;DHT22;11794;49.730;10.088;2022-09-28T16:40:07;12.30;99.90
23251;DHT22;11794;49.730;10.088;2022-09-28T16:42:33;12.40;99.90
23251;DHT22;11794;49.730;10.088;2022-09-28T16:44:59;12.30;99.90
23251;DHT22;11794;49.730;10.088;2022-09-28T16:47:29;12.30;99.90
23251;DHT22;11794;49.730;10.088;2022-09-28T16:50:09;12.20;99.90
23251;DHT22;11794;49.730;10.088;2022-09-28T16:52:38;12.20;99.90
23251;DHT22;11794;49.730;10.088;2022-09-28T16:55:22;12.10;99.90
23251;DHT22;11794;49.730;10.088;2022-09-28T16:57:48;12.10;99.90
23251;DHT22;11794;49.730;10.088;2022-09-28T17:00:17;12.00;99.90
23251;DHT22;11794;49.730;10.088;2022-09-28T17:02:45;11.90;99.90
23251;DHT22;11794;49.730;10.088;2022-09-28T17:05:12;11.90;99.90
23251;DHT22;11794;49.730;10.088;2022-09-28T17:07:40;11.80;99.90
23251;DHT22;11794;49.730;10.088;2022-09-28T17:12:59;11.70;99.90
23251;DHT22;11794;49.730;10.088;2022-09-28T17:15:25;11.60;99.90
23251;DHT22;11794;49.730;10.088;2022-09-28T17:17:50;11.60;99.90
23251;DHT22;11794;49.730;10.088;2022-09-28T17:20:25;11.50;99.90
23251;DHT22;11794;49.730;10.088;2022-09-28T17:22:52;11.40;99.90
23251;DHT22;11794;49.730;10.088;2022-09-28T17:25:19;11.30;99.90
23251;DHT22;11794;49.730;10.088;2022-09-28T17:27:46;11.20;99.90
23251;DHT22;11794;49.730;10.088;2022-09-28T17:30:13;11.10;99.90
23251;DHT22;11794;49.730;10.088;2022-09-28T17:32:39;11.10;99.90
23251;DHT22;11794;49.730;10.088;2022-09-28T17:35:15;11.00;99.90
23251;DHT22;11794;49.730;10.088;2022-09-28T17:37:42;10.90;99.90
23251;DHT22;11794;49.730;10.088;2022-09-28T17:40:33;10.80;99.90
23251;DHT22;11794;49.730;10.088;2022-09-28T17:42:59;10.60;99.90
23251;DHT22;11794;49.730;10.088;2022-09-28T17:45:26;10.50;99.90
23251;DHT22;11794;49.730;10.088;2022-09-28T17:47:53;10.30;99.90
23251;DHT22;11794;49.730;10.088;2022-09-28T17:50:25;10.20;99.90
23251;DHT22;11794;49.730;10.088;2022-09-28T17:52:52;10.10;99.90
23251;DHT22;11794;49.730;10.088;2022-09-28T17:55:20;10.00;99.90
23251;DHT22;11794;49.730;10.088;2022-09-28T17:57:45;9.90;99.90
23251;DHT22;11794;49.730;10.088;2022-09-28T18:00:11;9.90;99.90
23251;DHT22;11794;49.730;10.088;2022-09-28T18:02:38;9.80;99.90
23251;DHT22;11794;49.730;10.088;2022-09-28T18:05:03;9.70;99.90
23251;DHT22;11794;49.730;10.088;2022-09-28T18:07:29;9.60;99.90
23251;DHT22;11794;49.730;10.088;2022-09-28T18:09:56;9.50;99.90
23251;DHT22;11794;49.730;10.088;2022-09-28T18:12:22;9.50;99.90
23251;DHT22;11794;49.730;10.088;2022-09-28T18:14:49;9.50;99.90
23251;DHT22;11794;49.730;10.088;2022-09-28T18:17:15;9.50;99.90
23251;DHT22;11794;49.730;10.088;2022-09-28T18:19:40;9.50;99.90
23251;DHT22;11794;49.730;10.088;2022-09-28T18:22:06;9.50;99.90
23251;DHT22;11794;49.730;10.088;2022-09-28T18:24:31;9.50;99.90
23251;DHT22;11794;49.730;10.088;2022-09-28T18:26:57;9.50;99.90
23251;DHT22;11794;49.730;10.088;2022-09-28T18:29:22;9.40;99.90
23251;DHT22;11794;49.730;10.088;2022-09-28T18:31:48;9.30;99.90
23251;DHT22;11794;49.730;10.088;2022-09-28T18:34:14;9.20;99.90